Time;durP1;ratioP1;P1;durP2;ratioP2;P2;SDS_P1;SDS_P2;PMS_P1;PMS_P2;Temp;Humidity;BMP_temperature;BMP_pressure;BME280_temperature;BME280_humidity;BME280_pressure;Samples;Min_cycle;Max_cycle;Signal;HPM_P1;HPM_P2
2021/12/18 00:01:05;;;;;;;;;82.20;69.00;20.10;99.90;;;;;;5077309;28;8874;-64
2021/12/18 00:03:32;;;;;;;;;81.40;67.60;20.00;99.90;;;;;;5066267;28;8818;-64
2021/12/18 00:06:02;;;;;;;;;84.40;73.00;19.90;99.90;;;;;;5059096;28;8736;-64
2021/12/18 00:08:29;;;;;;;;;77.60;63.80;20.00;99.90;;;;;;5042151;28;9424;-64
2021/12/18 00:10:55;;;;;;;;;81.80;65.40;19.80;99.90;;;;;;5075021;28;8779;-64
2021/12/18 00:13:23;;;;;;;;;88.60;75.80;19.90;99.90;;;;;;5059338;28;8717;-64
2021/12/18 00:15:50;;;;;;;;;85.80;71.20;20.00;99.90;;;;;;5076632;28;8784;-64
2021/12/18 00:18:16;;;;;;;;;82.60;74.80;20.00;99.90;;;;;;5059112;28;8752;-64
2021/12/18 00:20:43;;;;;;;;;86.60;71.40;19.90;99.90;;;;;;5076790;28;8749;-64
2021/12/18 00:23:10;;;;;;;;;82.80;69.60;20.00;99.90;;;;;;5076980;28;8760;-64
2021/12/18 00:25:37;;;;;;;;;81.40;67.40;20.10;99.90;;;;;;5076309;28;8750;-64
2021/12/18 00:28:03;;;;;;;;;83.80;75.40;20.20;99.90;;;;;;5077246;28;8713;-64
2021/12/18 00:30:30;;;;;;;;;83.80;74.20;20.20;99.90;;;;;;5076402;28;8834;-65
2021/12/18 00:32:57;;;;;;;;;83.00;73.00;20.20;99.90;;;;;;5076781;28;8764;-64
2021/12/18 00:35:24;;;;;;;;;83.00;72.80;20.30;99.90;;;;;;5076197;28;8737;-65
2021/12/18 00:37:51;;;;;;;;;94.60;81.00;20.50;99.90;;;;;;5075375;28;9394;-64
2021/12/18 00:40:24;;;;;;;;;83.40;78.00;20.50;99.90;;;;;;5077211;28;8791;-65
2021/12/18 00:43:13;;;;;;;;;91.00;83.20;20.30;99.90;;;;;;5076810;28;9370;-64
2021/12/18 00:45:39;;;;;;;;;87.80;80.40;20.00;99.90;;;;;;5066595;28;8761;-64
2021/12/18 00:48:06;;;;;;;;;86.80;79.20;20.10;99.90;;;;;;5076554;28;8748;-64
2021/12/18 00:50:33;;;;;;;;;83.80;70.40;20.30;99.90;;;;;;5076565;28;8766;-65
2021/12/18 00:52:59;;;;;;;;;80.00;62.80;20.30;99.90;;;;;;5058813;28;8749;-64
2021/12/18 00:55:26;;;;;;;;;82.40;69.60;20.40;99.90;;;;;;5058333;28;8721;-65
2021/12/18 00:57:53;;;;;;;;;76.60;63.40;20.10;99.90;;;;;;5059268;28;8761;-65
2021/12/18 01:00:23;;;;;;;;;76.00;59.80;20.20;99.90;;;;;;5031843;28;8766;-65
2021/12/18 01:02:57;;;;;;;;;71.40;56.20;20.30;99.90;;;;;;5076203;28;8736;-65
2021/12/18 01:05:27;;;;;;;;;74.00;56.60;20.50;99.90;;;;;;5058641;28;8748;-65
2021/12/18 01:07:58;;;;;;;;;74.40;59.80;20.60;99.90;;;;;;5076071;28;8744;-65
2021/12/18 01:13:15;;;;;;;;;77.20;62.40;20.80;99.90;;;;;;5076656;28;8729;-64
2021/12/18 01:15:48;;;;;;;;;77.00;62.40;20.70;99.90;;;;;;5069718;28;8745;-64
2021/12/18 01:23:49;;;;;;;;;72.60;55.40;21.00;99.90;;;;;;5066754;28;8786;-64
2021/12/18 01:26:16;;;;;;;;;77.20;63.80;21.10;99.90;;;;;;5062132;28;8776;-64
2021/12/18 01:28:43;;;;;;;;;69.40;56.20;21.00;99.90;;;;;;5079885;28;8709;-65
2021/12/18 01:31:10;;;;;;;;;79.20;62.60;21.00;99.90;;;;;;5080563;28;8757;-64
2021/12/18 01:33:37;;;;;;;;;79.40;65.40;21.10;99.90;;;;;;5079774;28;9903;-64
2021/12/18 01:36:04;;;;;;;;;79.00;67.20;21.00;99.90;;;;;;5079940;28;8805;-64
2021/12/18 01:38:31;;;;;;;;;72.20;55.00;21.20;99.90;;;;;;5079970;28;8844;-65
2021/12/18 01:40:58;;;;;;;;;65.25;52.00;21.20;99.90;;;;;;5061786;28;8930;-65
2021/12/18 01:53:52;;;;;;;;;73.40;58.20;21.50;99.90;;;;;;5079521;28;8760;-64
2021/12/18 01:56:19;;;;;;;;;77.80;67.80;21.60;99.90;;;;;;5078826;28;8769;-64
2021/12/18 01:58:46;;;;;;;;;78.60;62.00;21.80;99.90;;;;;;5079492;28;8905;-65
2021/12/18 02:01:14;;;;;;;;;75.20;61.60;21.80;99.90;;;;;;5062091;28;8793;-64
2021/12/18 02:03:40;;;;;;;;;75.40;58.00;21.80;99.90;;;;;;5061219;28;8752;-65
2021/12/18 02:06:07;;;;;;;;;76.00;65.80;21.70;99.90;;;;;;5079306;28;8744;-64
2021/12/18 02:08:36;;;;;;;;;76.60;62.00;21.80;99.90;;;;;;5079029;28;8775;-65
2021/12/18 02:14:03;;;;;;;;;80.80;68.60;22.20;99.90;;;;;;5078864;28;8768;-65
2021/12/18 02:21:52;;;;;;;;;75.20;61.80;22.70;99.90;;;;;;5079577;28;9413;-64
2021/12/18 02:24:22;;;;;;;;;77.80;70.00;22.80;99.90;;;;;;5079288;28;8787;-65
2021/12/18 02:26:48;;;;;;;;;71.80;54.40;22.70;99.90;;;;;;5079115;28;8753;-64
2021/12/18 02:29:16;;;;;;;;;64.00;50.20;22.50;99.90;;;;;;5078266;28;8765;-64
2021/12/18 02:31:43;;;;;;;;;65.50;50.50;22.40;99.90;;;;;;5079088;28;8737;-64
2021/12/18 02:34:18;;;;;;;;;55.75;44.00;22.40;99.90;;;;;;5079180;28;8728;-64
2021/12/18 02:36:47;;;;;;;;;54.25;44.25;22.40;99.90;;;;;;5036223;28;8755;-64
2021/12/18 02:39:41;;;;;;;;;57.25;46.00;22.40;99.90;;;;;;5061042;28;8795;-65
2021/12/18 02:42:10;;;;;;;;;62.75;48.25;22.50;99.90;;;;;;5078316;28;8808;-65
2021/12/18 02:44:39;;;;;;;;;62.25;49.00;22.90;99.90;;;;;;5056945;28;8790;-65
2021/12/18 02:47:07;;;;;;;;;60.25;46.00;23.10;99.90;;;;;;5057761;28;8778;-64
2021/12/18 02:49:34;;;;;;;;;45.75;37.50;23.30;99.90;;;;;;5073900;28;8819;-65
2021/12/18 02:52:00;;;;;;;;;51.00;42.25;23.50;99.60;;;;;;5074671;28;8865;-64
2021/12/18 02:54:27;;;;;;;;;43.00;32.25;23.50;99.10;;;;;;5058417;28;8839;-65
2021/12/18 02:56:54;;;;;;;;;40.50;35.50;23.40;98.80;;;;;;5058861;28;8794;-64
2021/12/18 02:59:22;;;;;;;;;36.75;29.75;23.50;98.30;;;;;;5058202;28;8784;-65
2021/12/18 03:01:48;;;;;;;;;38.50;34.00;23.30;97.80;;;;;;5058384;28;8776;-65
2021/12/18 03:04:26;;;;;;;;;33.50;29.50;23.30;97.50;;;;;;5058950;28;8757;-65
2021/12/18 03:06:59;;;;;;;;;34.50;32.00;23.50;97.90;;;;;;5057314;28;8765;-65
2021/12/18 03:25:22;;;;;;;;;36.75;31.50;24.20;96.20;;;;;;5038833;28;8748;-64
2021/12/18 03:27:49;;;;;;;;;43.25;36.00;24.30;95.80;;;;;;5038091;28;8772;-65
2021/12/18 03:30:16;;;;;;;;;34.50;29.75;24.30;96.30;;;;;;5042472;28;8774;-64
2021/12/18 03:32:43;;;;;;;;;38.50;32.75;24.30;95.30;;;;;;5057700;28;8779;-65
2021/12/18 03:35:10;;;;;;;;;38.25;31.75;24.30;95.80;;;;;;5056235;28;8749;-64
2021/12/18 03:37:38;;;;;;;;;31.75;24.00;24.40;95.40;;;;;;5057390;28;8777;-65
2021/12/18 03:40:05;;;;;;;;;42.25;34.25;24.60;95.30;;;;;;5073239;28;8738;-65
2021/12/18 03:42:32;;;;;;;;;44.75;34.25;24.50;94.90;;;;;;5056949;28;8814;-65
2021/12/18 03:44:59;;;;;;;;;38.25;32.00;24.60;94.90;;;;;;5065316;28;8783;-65
2021/12/18 03:47:26;;;;;;;;;43.00;34.75;24.60;94.80;;;;;;5076528;28;8924;-65
2021/12/18 03:49:53;;;;;;;;;48.00;36.75;24.70;94.70;;;;;;5077299;28;8749;-65
2021/12/18 03:52:19;;;;;;;;;37.00;32.00;24.90;94.70;;;;;;5077734;28;8762;-65
2021/12/18 03:54:46;;;;;;;;;39.25;32.75;25.20;94.90;;;;;;5077506;28;8855;-65
2021/12/18 03:57:13;;;;;;;;;35.00;32.00;25.40;94.60;;;;;;5042827;28;8874;-65
2021/12/18 03:59:39;;;;;;;;;37.75;33.75;25.40;94.00;;;;;;5059221;28;8811;-65
2021/12/18 04:02:06;;;;;;;;;40.25;34.25;25.50;93.90;;;;;;5076797;28;8749;-66
2021/12/18 04:04:33;;;;;;;;;35.50;31.00;25.50;94.20;;;;;;5076962;28;8745;-66
2021/12/18 04:07:00;;;;;;;;;35.25;31.50;25.70;93.70;;;;;;5077733;28;8733;-65
2021/12/18 04:09:30;;;;;;;;;44.25;34.00;25.80;92.80;;;;;;5076844;28;8768;-65
2021/12/18 04:11:58;;;;;;;;;37.00;33.50;25.90;93.00;;;;;;5076934;28;8756;-65
2021/12/18 04:14:25;;;;;;;;;40.50;33.25;25.80;92.60;;;;;;5076857;28;8769;-66
2021/12/18 04:16:51;;;;;;;;;23.25;22.00;25.90;92.40;;;;;;5076671;28;8757;-66
2021/12/18 04:19:19;;;;;;;;;29.00;21.75;25.80;92.70;;;;;;5059288;28;8755;-66
2021/12/18 04:21:46;;;;;;;;;40.75;34.75;26.00;92.40;;;;;;5077089;28;8772;-65
2021/12/18 04:24:12;;;;;;;;;40.00;32.75;26.20;92.00;;;;;;5042690;28;8736;-65
2021/12/18 04:26:39;;;;;;;;;31.75;28.25;26.20;91.50;;;;;;5076558;28;8761;-66
2021/12/18 04:29:06;;;;;;;;;41.50;34.25;26.20;91.80;;;;;;5076781;28;8883;-65
2021/12/18 04:31:34;;;;;;;;;0.50;0.00;26.50;91.30;;;;;;5038686;28;8735;-66
2021/12/18 04:34:01;;;;;;;;;40.00;32.25;26.50;91.30;;;;;;5057229;28;8751;-65
2021/12/18 04:36:28;;;;;;;;;40.75;34.00;26.50;91.50;;;;;;5038710;28;8735;-66
2021/12/18 04:38:57;;;;;;;;;42.75;33.25;26.60;91.60;;;;;;5056667;28;8831;-66
2021/12/18 04:41:38;;;;;;;;;39.75;32.75;26.70;91.40;;;;;;5022103;28;8770;-66
2021/12/18 04:44:05;;;;;;;;;42.75;34.50;26.60;91.10;;;;;;5056387;28;8782;-66
2021/12/18 04:46:32;;;;;;;;;34.50;31.50;26.40;91.40;;;;;;5071114;28;9473;-65
2021/12/18 04:48:58;;;;;;;;;35.75;30.75;26.50;91.10;;;;;;5075680;28;8745;-66
2021/12/18 04:51:25;;;;;;;;;33.25;26.75;26.60;91.20;;;;;;5058283;28;8745;-66
2021/12/18 04:53:52;;;;;;;;;35.25;30.50;26.90;91.10;;;;;;5076401;28;9386;-66
2021/12/18 04:56:19;;;;;;;;;26.00;24.75;27.10;90.50;;;;;;5058204;28;8768;-66
2021/12/18 04:58:45;;;;;;;;;34.00;31.25;27.20;91.00;;;;;;5078551;28;8755;-65
2021/12/18 05:01:12;;;;;;;;;26.75;25.75;27.10;90.10;;;;;;5063511;28;8793;-65
2021/12/18 05:03:40;;;;;;;;;29.75;27.75;27.00;90.20;;;;;;5062528;28;8775;-66
2021/12/18 05:06:07;;;;;;;;;30.50;30.00;27.00;90.40;;;;;;5080156;28;8743;-66
2021/12/18 05:08:33;;;;;;;;;34.75;30.00;27.00;88.80;;;;;;5080034;28;9451;-66
2021/12/18 05:11:00;;;;;;;;;31.50;30.75;27.30;89.10;;;;;;5079515;28;8825;-66
2021/12/18 05:13:27;;;;;;;;;34.00;29.25;27.40;89.40;;;;;;5078754;28;8712;-66
2021/12/18 05:15:53;;;;;;;;;35.75;32.75;27.60;89.70;;;;;;5080844;28;8793;-66
2021/12/18 05:18:20;;;;;;;;;26.75;23.75;27.80;87.90;;;;;;5061874;28;8760;-66
2021/12/18 05:20:47;;;;;;;;;34.50;29.25;27.80;88.30;;;;;;5079774;28;8757;-66
2021/12/18 05:23:13;;;;;;;;;30.00;28.25;27.70;87.90;;;;;;5080027;28;8787;-66
2021/12/18 05:25:40;;;;;;;;;33.25;31.50;27.70;88.20;;;;;;5062087;28;8749;-66
2021/12/18 05:28:07;;;;;;;;;33.25;28.00;27.80;88.70;;;;;;5080765;28;8749;-66
2021/12/18 05:30:33;;;;;;;;;34.00;30.25;27.90;88.40;;;;;;5054723;28;8771;-67
2021/12/18 05:33:03;;;;;;;;;33.25;30.25;28.10;88.40;;;;;;5042901;28;9244;-66
2021/12/18 05:35:30;;;;;;;;;29.75;26.00;28.20;89.10;;;;;;5032166;28;8782;-66
2021/12/18 05:38:04;;;;;;;;;33.75;29.75;28.30;88.40;;;;;;5041704;28;8798;-66
2021/12/18 05:40:31;;;;;;;;;32.75;31.25;28.40;88.00;;;;;;5059358;28;8778;-66
2021/12/18 05:42:58;;;;;;;;;25.25;25.25;28.50;87.30;;;;;;5060409;28;8775;-66
2021/12/18 05:45:25;;;;;;;;;36.50;31.00;28.60;86.40;;;;;;5043358;28;8809;-66
2021/12/18 05:47:51;;;;;;;;;33.25;30.00;28.60;85.70;;;;;;5058617;28;8827;-66
2021/12/18 05:50:19;;;;;;;;;34.25;32.75;28.60;84.90;;;;;;5060085;28;8754;-66
2021/12/18 05:52:47;;;;;;;;;28.00;25.50;28.60;86.00;;;;;;5058671;28;8762;-66
2021/12/18 05:55:15;;;;;;;;;30.25;28.00;28.60;85.00;;;;;;5058818;28;8858;-66
2021/12/18 05:57:42;;;;;;;;;33.00;30.25;28.60;86.10;;;;;;5059323;28;8726;-66
2021/12/18 06:00:10;;;;;;;;;33.50;30.50;28.70;85.00;;;;;;5059570;28;8817;-66
2021/12/18 06:02:36;;;;;;;;;36.50;30.50;28.80;85.10;;;;;;5059134;28;8805;-66
2021/12/18 06:05:04;;;;;;;;;33.75;30.50;28.70;85.60;;;;;;5059727;28;8765;-66
2021/12/18 06:07:55;;;;;;;;;33.50;29.75;28.70;85.20;;;;;;5057798;28;8737;-66
2021/12/18 06:10:18;;;;;;;;;32.00;28.75;28.80;85.20;;;;;;5059246;28;8837;-67
2021/12/18 06:12:45;;;;;;;;;32.00;29.75;28.90;84.00;;;;;;5059561;28;8762;-66
2021/12/18 06:15:11;;;;;;;;;37.00;32.50;29.10;83.90;;;;;;5058557;28;8766;-66
2021/12/18 06:17:38;;;;;;;;;34.25;29.50;29.20;83.90;;;;;;5059129;28;10166;-66
2021/12/18 06:20:05;;;;;;;;;38.25;33.25;29.00;83.60;;;;;;5059008;28;8754;-66
2021/12/18 06:22:32;;;;;;;;;34.00;28.75;29.00;83.70;;;;;;5058819;28;8778;-66
2021/12/18 06:24:58;;;;;;;;;30.50;30.50;29.00;83.00;;;;;;5075356;28;8746;-66
2021/12/18 06:27:25;;;;;;;;;32.75;30.25;29.00;84.10;;;;;;5057862;28;8730;-66
2021/12/18 06:29:52;;;;;;;;;31.75;30.50;29.10;83.80;;;;;;5058965;28;8777;-65
2021/12/18 06:32:19;;;;;;;;;34.50;31.75;29.20;83.70;;;;;;5058766;28;8770;-66
2021/12/18 06:34:45;;;;;;;;;28.50;27.75;29.20;82.70;;;;;;5059011;28;8813;-66
2021/12/18 06:37:12;;;;;;;;;34.00;30.75;29.20;83.70;;;;;;5074961;28;8778;-66
2021/12/18 06:39:41;;;;;;;;;33.25;30.25;29.10;84.30;;;;;;5064587;28;8747;-66
2021/12/18 06:42:08;;;;;;;;;31.50;27.75;29.10;83.50;;;;;;5074165;28;8753;-66
2021/12/18 06:44:35;;;;;;;;;35.25;31.00;29.10;84.10;;;;;;5062803;28;8776;-66
2021/12/18 06:47:02;;;;;;;;;31.75;29.50;29.10;83.20;;;;;;5078559;28;8768;-66
2021/12/18 06:49:28;;;;;;;;;29.75;28.25;29.20;82.90;;;;;;5078416;28;9373;-66
2021/12/18 06:51:55;;;;;;;;;32.75;27.50;29.40;82.80;;;;;;5079326;28;8756;-66
2021/12/18 06:54:22;;;;;;;;;37.00;31.50;29.60;82.50;;;;;;5078422;28;8814;-66
2021/12/18 06:56:49;;;;;;;;;30.00;28.50;29.70;81.70;;;;;;5078522;28;8737;-66
2021/12/18 06:59:16;;;;;;;;;36.00;32.25;29.60;82.00;;;;;;5060860;28;9532;-66
2021/12/18 07:01:44;;;;;;;;;42.00;36.00;29.50;82.80;;;;;;5077977;28;8776;-66
2021/12/18 07:04:11;;;;;;;;;45.00;34.50;29.40;84.20;;;;;;5078980;28;8728;-66
2021/12/18 07:06:38;;;;;;;;;41.50;34.00;29.40;83.40;;;;;;5076859;28;8757;-65
2021/12/18 07:09:05;;;;;;;;;39.50;34.00;29.40;84.00;;;;;;5060595;28;8741;-66
2021/12/18 07:11:32;;;;;;;;;36.00;31.75;29.40;82.80;;;;;;5078036;28;8757;-66
2021/12/18 07:13:58;;;;;;;;;38.00;33.25;29.30;83.20;;;;;;5078364;28;8760;-66
2021/12/18 07:16:25;;;;;;;;;35.00;31.50;29.40;83.20;;;;;;5076371;28;9393;-67
2021/12/18 07:18:52;;;;;;;;;40.25;33.25;29.40;83.00;;;;;;5078573;28;8729;-65
2021/12/18 07:21:21;;;;;;;;;34.25;31.75;29.20;84.60;;;;;;5076527;28;8817;-66
2021/12/18 07:23:48;;;;;;;;;42.75;35.25;29.00;84.80;;;;;;5077916;28;8734;-66
2021/12/18 07:26:15;;;;;;;;;40.00;34.50;29.20;84.20;;;;;;5078024;28;9005;-65
2021/12/18 07:28:41;;;;;;;;;41.50;35.00;29.20;83.70;;;;;;5077895;28;8805;-65
2021/12/18 07:31:08;;;;;;;;;35.50;33.00;29.00;84.10;;;;;;5078566;28;8721;-65
2021/12/18 07:33:37;;;;;;;;;32.75;30.75;28.80;85.20;;;;;;5076129;28;8760;-65
2021/12/18 07:36:07;;;;;;;;;41.00;34.50;28.90;85.00;;;;;;5077577;28;8779;-66
2021/12/18 07:38:34;;;;;;;;;35.75;32.50;29.10;84.40;;;;;;5059403;28;8749;-66
2021/12/18 07:41:01;;;;;;;;;43.00;34.00;29.20;83.70;;;;;;5067630;28;8783;-65
2021/12/18 07:43:28;;;;;;;;;41.75;35.75;29.30;83.20;;;;;;5076083;28;8949;-66
2021/12/18 07:45:54;;;;;;;;;44.25;35.25;29.40;83.30;;;;;;5073034;28;8781;-66
2021/12/18 07:48:21;;;;;;;;;38.25;30.50;29.50;82.70;;;;;;5057114;28;8801;-66
2021/12/18 07:50:48;;;;;;;;;35.00;30.25;29.70;81.40;;;;;;5056256;28;8749;-68
2021/12/18 07:53:16;;;;;;;;;30.25;29.00;29.60;81.90;;;;;;5057870;28;8776;-66
2021/12/18 07:55:43;;;;;;;;;34.00;30.25;29.50;82.10;;;;;;5039857;28;8776;-66
2021/12/18 07:58:10;;;;;;;;;40.00;35.00;29.40;82.20;;;;;;5057967;28;8812;-66
2021/12/18 08:00:37;;;;;;;;;36.75;32.75;29.40;81.70;;;;;;5056840;28;8809;-66
2021/12/18 08:03:03;;;;;;;;;31.75;30.75;29.40;82.40;;;;;;5057045;28;8766;-65
2021/12/18 08:05:30;;;;;;;;;34.50;30.50;29.30;82.40;;;;;;5055691;28;8770;-65
2021/12/18 08:07:57;;;;;;;;;35.50;32.25;29.30;81.20;;;;;;5056872;28;8783;-66
2021/12/18 08:10:23;;;;;;;;;40.75;34.50;29.40;81.30;;;;;;5057482;28;8744;-66
2021/12/18 08:12:50;;;;;;;;;34.00;31.00;29.50;80.80;;;;;;5057437;28;8729;-65
2021/12/18 08:15:17;;;;;;;;;40.75;32.50;29.40;81.80;;;;;;5056600;28;8914;-66
2021/12/18 08:17:43;;;;;;;;;33.25;31.00;29.50;80.50;;;;;;5057327;28;8758;-65
2021/12/18 08:20:10;;;;;;;;;32.00;30.50;29.50;80.40;;;;;;5056651;28;8841;-66
2021/12/18 08:22:37;;;;;;;;;37.25;32.25;29.50;81.00;;;;;;5056422;28;10228;-66
2021/12/18 08:25:05;;;;;;;;;42.00;32.75;29.20;82.30;;;;;;5057632;28;8857;-65
2021/12/18 08:27:32;;;;;;;;;35.25;32.25;29.30;82.10;;;;;;5055562;28;8761;-65
2021/12/18 08:29:58;;;;;;;;;36.50;32.25;29.30;81.60;;;;;;5056746;28;8780;-65
2021/12/18 08:32:25;;;;;;;;;39.75;33.50;29.00;81.70;;;;;;5054906;28;8766;-65
2021/12/18 08:34:52;;;;;;;;;37.25;31.00;29.00;82.70;;;;;;5055617;28;8754;-66
2021/12/18 08:37:20;;;;;;;;;36.75;32.50;28.90;83.80;;;;;;5057241;28;8754;-66
2021/12/18 08:39:48;;;;;;;;;41.50;33.00;29.10;83.60;;;;;;5055447;28;8819;-65
2021/12/18 08:42:15;;;;;;;;;41.00;35.25;29.20;84.10;;;;;;5055513;28;8770;-65
2021/12/18 08:44:43;;;;;;;;;39.25;33.00;29.10;83.80;;;;;;5071830;28;8806;-65
2021/12/18 08:47:10;;;;;;;;;31.50;29.25;29.10;84.70;;;;;;5036393;28;8883;-65
2021/12/18 08:49:40;;;;;;;;;41.75;34.00;29.10;83.30;;;;;;5036310;28;8834;-66
2021/12/18 08:52:10;;;;;;;;;43.50;36.50;29.20;83.90;;;;;;5037226;28;8851;-65
2021/12/18 08:54:37;;;;;;;;;36.25;34.00;29.20;82.90;;;;;;5034996;28;8744;-66
2021/12/18 08:57:03;;;;;;;;;35.00;33.00;29.20;82.30;;;;;;5036485;28;8779;-65
2021/12/18 08:59:30;;;;;;;;;45.75;35.25;29.30;81.50;;;;;;5036411;28;8749;-66
2021/12/18 09:01:57;;;;;;;;;41.75;35.75;29.10;82.70;;;;;;5054534;28;9062;-66
2021/12/18 09:04:23;;;;;;;;;41.50;35.00;29.20;83.10;;;;;;5056617;28;8726;-66
2021/12/18 09:06:50;;;;;;;;;43.50;35.50;29.30;83.20;;;;;;5057040;28;8714;-65
2021/12/18 09:09:17;;;;;;;;;48.25;40.50;29.40;83.80;;;;;;5054776;28;8789;-65
2021/12/18 09:11:43;;;;;;;;;53.25;42.25;29.30;83.70;;;;;;5056237;28;8738;-66
2021/12/18 09:14:10;;;;;;;;;55.00;43.00;29.40;83.70;;;;;;5056569;28;8756;-65
2021/12/18 09:16:37;;;;;;;;;52.50;41.50;29.30;83.90;;;;;;5055931;28;8762;-65
2021/12/18 09:19:03;;;;;;;;;48.00;41.00;29.00;83.40;;;;;;5056694;28;8750;-65
2021/12/18 09:21:30;;;;;;;;;52.00;40.25;29.00;84.10;;;;;;5055897;28;8826;-65
2021/12/18 09:23:57;;;;;;;;;48.50;39.25;29.10;83.40;;;;;;5038590;28;8742;-65
2021/12/18 09:26:24;;;;;;;;;48.50;36.25;29.10;83.00;;;;;;5056197;28;8729;-65
2021/12/18 09:28:50;;;;;;;;;46.00;38.00;28.90;83.40;;;;;;5038663;28;9501;-65
2021/12/18 09:31:17;;;;;;;;;51.00;41.75;28.90;84.40;;;;;;5055662;28;8841;-65
2021/12/18 09:33:44;;;;;;;;;47.00;36.50;28.80;84.80;;;;;;5054686;28;8761;-65
2021/12/18 09:36:10;;;;;;;;;49.25;39.25;28.90;84.70;;;;;;5056034;28;8757;-65
2021/12/18 09:38:37;;;;;;;;;47.00;39.50;28.90;85.20;;;;;;5055853;28;8770;-65
2021/12/18 09:41:06;;;;;;;;;47.25;39.50;28.90;84.90;;;;;;5055008;28;8795;-65
2021/12/18 09:43:34;;;;;;;;;51.00;42.75;29.00;85.20;;;;;;5054421;28;8777;-66
2021/12/18 09:46:07;;;;;;;;;58.25;41.75;29.00;85.00;;;;;;5057984;28;9450;-66
2021/12/18 09:48:36;;;;;;;;;53.50;42.75;29.10;85.10;;;;;;5059111;28;8801;-65
2021/12/18 09:51:07;;;;;;;;;52.75;42.25;29.20;84.70;;;;;;5075032;28;8781;-66
2021/12/18 09:53:35;;;;;;;;;51.25;40.25;29.20;85.20;;;;;;5059688;28;8773;-66
2021/12/18 09:56:02;;;;;;;;;52.50;40.75;29.20;86.10;;;;;;5051452;28;8829;-65
2021/12/18 09:58:29;;;;;;;;;46.00;36.00;29.10;86.40;;;;;;5059649;28;8761;-66
2021/12/18 10:00:56;;;;;;;;;43.25;36.50;29.10;85.50;;;;;;5060659;28;8758;-65
2021/12/18 10:03:27;;;;;;;;;52.33;41.00;29.00;85.30;;;;;;5059125;28;9501;-65
2021/12/18 10:05:53;;;;;;;;;50.50;40.50;28.90;85.50;;;;;;5058532;28;8766;-65
2021/12/18 10:08:21;;;;;;;;;48.50;39.50;29.00;86.20;;;;;;5058059;28;8784;-66
2021/12/18 10:11:09;;;;;;;;;42.00;36.75;29.00;86.80;;;;;;5059633;28;8746;-65
2021/12/18 10:13:54;;;;;;;;;48.00;39.25;28.90;87.70;;;;;;5059575;28;8781;-65
2021/12/18 10:16:21;;;;;;;;;47.50;35.50;28.90;87.40;;;;;;5059777;28;8792;-66
2021/12/18 10:18:49;;;;;;;;;46.50;37.50;28.80;87.60;;;;;;5059169;28;8742;-65
2021/12/18 10:21:17;;;;;;;;;46.75;38.75;28.70;87.80;;;;;;5059186;28;8945;-65
2021/12/18 10:23:45;;;;;;;;;43.25;36.50;28.60;88.20;;;;;;5058846;28;8823;-65
2021/12/18 10:26:37;;;;;;;;;46.75;39.00;28.50;89.30;;;;;;5059166;28;9857;-65
2021/12/18 10:29:26;;;;;;;;;50.25;39.25;28.40;90.30;;;;;;5057807;28;8770;-65
2021/12/18 10:31:53;;;;;;;;;48.75;41.25;28.40;90.50;;;;;;5057951;28;8749;-65
2021/12/18 10:34:27;;;;;;;;;67.75;52.25;28.30;90.50;;;;;;5059194;28;8741;-65
2021/12/18 10:37:12;;;;;;;;;65.25;50.25;28.20;90.50;;;;;;5074809;28;9284;-65
2021/12/18 10:39:53;;;;;;;;;67.50;53.50;28.10;90.20;;;;;;5058852;28;8812;-65
2021/12/18 10:42:24;;;;;;;;;65.00;49.00;28.10;90.00;;;;;;5058218;28;8902;-65
2021/12/18 10:45:14;;;;;;;;;58.25;46.25;28.00;89.60;;;;;;5059723;28;8815;-65
2021/12/18 10:47:51;;;;;;;;;59.25;46.75;27.90;90.00;;;;;;5041626;28;8773;-65
2021/12/18 10:50:31;;;;;;;;;63.25;46.50;27.80;90.10;;;;;;5026551;28;8792;-65
2021/12/18 10:52:59;;;;;;;;;60.75;48.75;27.70;90.20;;;;;;5038770;28;8776;-65
2021/12/18 10:55:33;;;;;;;;;65.75;51.75;27.70;90.30;;;;;;5038082;28;8757;-66
2021/12/18 10:58:02;;;;;;;;;62.50;48.00;27.60;90.40;;;;;;5039586;28;8745;-65
2021/12/18 11:00:35;;;;;;;;;65.50;49.75;27.50;90.30;;;;;;5044161;28;8789;-65
2021/12/18 11:03:20;;;;;;;;;64.75;50.75;27.50;90.20;;;;;;5057128;28;8843;-65
2021/12/18 11:06:06;;;;;;;;;67.50;51.25;27.40;90.40;;;;;;5073976;28;8761;-65
2021/12/18 11:08:34;;;;;;;;;65.50;50.50;27.40;90.40;;;;;;5058477;28;8795;-65
2021/12/18 11:13:54;;;;;;;;;59.25;47.00;27.30;90.50;;;;;;5007436;28;9424;-65
2021/12/18 11:16:22;;;;;;;;;63.25;49.50;27.30;91.10;;;;;;5058234;28;8858;-65
2021/12/18 11:18:49;;;;;;;;;64.25;50.75;27.10;91.90;;;;;;5058038;28;8742;-64
2021/12/18 11:21:15;;;;;;;;;63.00;49.50;27.00;93.70;;;;;;5058042;28;8878;-64
2021/12/18 11:23:55;;;;;;;;;64.00;51.00;26.80;94.60;;;;;;5058165;28;8765;-65
2021/12/18 11:26:23;;;;;;;;;71.00;51.50;26.70;94.20;;;;;;5058080;28;8765;-65
2021/12/18 11:28:54;;;;;;;;;66.25;52.00;26.70;94.00;;;;;;5058414;28;8749;-65
2021/12/18 11:31:21;;;;;;;;;63.25;49.50;26.80;93.90;;;;;;5058290;28;8797;-65
2021/12/18 11:33:48;;;;;;;;;67.00;50.50;26.80;94.00;;;;;;5073218;28;8827;-65
2021/12/18 11:36:14;;;;;;;;;69.40;54.40;26.80;93.90;;;;;;5072748;28;8789;-65
2021/12/18 11:38:42;;;;;;;;;69.00;54.00;26.80;93.80;;;;;;5057565;28;8765;-65
2021/12/18 11:41:17;;;;;;;;;75.00;60.60;26.90;93.60;;;;;;5073038;28;8785;-65
2021/12/18 11:43:46;;;;;;;;;106.20;88.20;26.80;93.70;;;;;;5056116;28;8746;-62
2021/12/18 11:46:31;;;;;;;;;111.80;98.00;26.80;93.50;;;;;;5057589;28;8815;-65
2021/12/18 11:49:00;;;;;;;;;98.40;92.80;26.80;93.70;;;;;;5058369;28;8743;-65
2021/12/18 11:51:28;;;;;;;;;118.80;96.40;26.70;93.90;;;;;;5057468;28;8766;-65
2021/12/18 11:53:54;;;;;;;;;112.80;94.20;26.70;93.90;;;;;;5057405;28;8770;-65
2021/12/18 11:56:21;;;;;;;;;105.80;92.40;26.70;94.00;;;;;;5056913;28;8881;-66
2021/12/18 11:58:48;;;;;;;;;91.60;75.20;26.70;94.20;;;;;;5039469;28;8746;-65
2021/12/18 12:01:25;;;;;;;;;88.00;69.40;26.70;94.50;;;;;;5057449;28;8803;-65
2021/12/18 12:03:51;;;;;;;;;83.20;81.20;26.70;95.00;;;;;;5057404;28;8731;-64
2021/12/18 12:06:28;;;;;;;;;96.40;80.20;26.70;94.80;;;;;;5056981;28;8844;-66
2021/12/18 12:09:38;;;;;;;;;80.60;68.20;26.70;95.20;;;;;;5056598;28;8767;-64
2021/12/18 12:12:09;;;;;;;;;83.20;72.00;26.70;95.40;;;;;;5056825;28;8786;-65
2021/12/18 12:14:37;;;;;;;;;83.20;73.20;26.60;96.00;;;;;;5056986;28;8813;-65
2021/12/18 12:17:21;;;;;;;;;81.40;71.20;26.60;95.90;;;;;;5039002;28;8747;-65
2021/12/18 12:19:50;;;;;;;;;85.80;74.00;26.60;95.80;;;;;;5057558;28;8849;-64
2021/12/18 12:22:36;;;;;;;;;88.20;75.00;26.60;95.60;;;;;;5056974;28;8834;-65
2021/12/18 12:25:07;;;;;;;;;87.00;76.00;26.60;95.80;;;;;;5057450;28;8857;-65
2021/12/18 12:27:36;;;;;;;;;91.20;77.80;26.50;95.80;;;;;;5055552;28;8762;-65
2021/12/18 12:30:27;;;;;;;;;95.60;83.60;26.30;96.40;;;;;;5056595;28;8767;-65
2021/12/18 12:33:03;;;;;;;;;101.60;88.60;26.20;96.80;;;;;;5056642;28;8770;-65
2021/12/18 12:35:30;;;;;;;;;85.40;78.40;26.20;96.20;;;;;;5056827;28;8870;-65
2021/12/18 12:37:57;;;;;;;;;93.00;80.80;26.30;95.80;;;;;;5056755;28;8771;-65
2021/12/18 12:40:35;;;;;;;;;88.60;74.60;26.40;95.40;;;;;;5056724;28;8829;-65
2021/12/18 12:43:16;;;;;;;;;88.20;78.00;26.50;95.20;;;;;;5056656;28;8825;-65
2021/12/18 12:45:44;;;;;;;;;94.40;84.60;26.50;95.50;;;;;;5056137;28;8819;-65
2021/12/18 12:48:11;;;;;;;;;95.00;82.20;26.60;95.90;;;;;;5039204;28;8767;-65
2021/12/18 12:50:38;;;;;;;;;91.80;80.60;26.60;96.10;;;;;;5056657;28;8775;-65
2021/12/18 12:53:08;;;;;;;;;85.20;73.60;26.60;96.30;;;;;;5056880;28;8751;-65
2021/12/18 12:55:46;;;;;;;;;91.00;77.40;26.50;96.60;;;;;;5056312;28;8751;-65
2021/12/18 12:58:23;;;;;;;;;93.20;81.40;26.50;97.00;;;;;;5039552;28;8787;-65
2021/12/18 13:00:54;;;;;;;;;92.60;79.40;26.50;96.90;;;;;;5030457;28;8939;-65
2021/12/18 13:03:24;;;;;;;;;90.40;81.00;26.50;96.80;;;;;;5036205;28;8777;-65
2021/12/18 13:05:58;;;;;;;;;94.60;79.40;26.50;96.80;;;;;;5036618;28;8757;-65
2021/12/18 13:08:28;;;;;;;;;92.40;78.00;26.20;98.20;;;;;;5036732;28;8749;-64
2021/12/18 13:10:58;;;;;;;;;94.00;86.80;26.20;98.00;;;;;;5036579;28;8780;-65
2021/12/18 13:13:26;;;;;;;;;94.40;79.20;26.20;97.80;;;;;;5036256;28;9075;-68
2021/12/18 13:16:07;;;;;;;;;91.40;83.80;26.30;97.70;;;;;;5028505;28;8775;-65
2021/12/18 13:18:38;;;;;;;;;84.60;74.20;26.40;97.50;;;;;;5057900;28;9455;-65
2021/12/18 13:21:09;;;;;;;;;100.80;86.20;26.40;96.80;;;;;;5060119;28;9470;-65
2021/12/18 13:23:44;;;;;;;;;88.80;81.60;26.30;97.20;;;;;;5060139;28;9363;-65
2021/12/18 13:26:19;;;;;;;;;100.00;89.20;26.30;97.20;;;;;;5060657;28;8753;-65
2021/12/18 13:28:57;;;;;;;;;98.80;86.20;26.30;96.70;;;;;;5060676;28;9829;-65
2021/12/18 13:31:29;;;;;;;;;86.60;75.80;26.40;96.50;;;;;;5060430;28;8767;-65